createdAt,value
2023-02-06T00:00:44.027Z,881.53
2023-02-06T00:03:50.912Z,842.44
2023-02-06T00:06:59.406Z,820.31
2023-02-06T00:10:06.297Z,854.60
2023-02-06T00:13:12.409Z,836.66
2023-02-06T00:16:21.373Z,868.33
2023-02-06T00:19:27.385Z,900.96
2023-02-06T00:22:37.182Z,896.60
2023-02-06T00:25:43.149Z,869.41
2023-02-06T00:28:50.609Z,845.71
2023-02-06T00:31:56.892Z,877.26
2023-02-06T00:35:11.125Z,867.95
2023-02-06T00:38:22.345Z,819.04
2023-02-06T00:41:29.126Z,852.90
2023-02-06T00:44:35.054Z,842.25
2023-02-06T00:47:41.855Z,842.76
2023-02-06T00:50:50.494Z,948.32
2023-02-06T00:53:59.978Z,999.73
2023-02-06T00:57:05.895Z,926.61
2023-02-06T01:00:16.041Z,835.78
2023-02-06T01:03:21.912Z,866.28
2023-02-06T01:06:28.769Z,819.84
2023-02-06T01:09:37.401Z,772.80
2023-02-06T01:12:44.298Z,789.82
2023-02-06T01:15:52.163Z,770.51
2023-02-06T01:18:59.367Z,778.65
2023-02-06T01:22:05.351Z,814.26
2023-02-06T01:25:14.905Z,809.23
2023-02-06T01:28:21.165Z,762.39
2023-02-06T01:31:32.025Z,760.58
2023-02-06T01:34:37.919Z,792.19
2023-02-06T01:37:45.323Z,784.44
2023-02-06T01:41:00.371Z,824.06
2023-02-06T01:44:22.702Z,895.76
2023-02-06T01:47:30.396Z,910.37
2023-02-06T01:50:40.367Z,904.92
2023-02-06T01:53:56.792Z,886.29
2023-02-06T01:57:14.545Z,870.74
2023-02-06T02:00:27.640Z,753.82
2023-02-06T02:03:39.997Z,792.03
2023-02-06T02:06:47.461Z,808.50
2023-02-06T02:09:58.749Z,856.33
2023-02-06T02:13:17.603Z,931.61
2023-02-06T02:16:39.770Z,928.63
2023-02-06T02:20:48.869Z,910.07
2023-02-06T02:24:07.943Z,988.81
2023-02-06T02:27:47.772Z,809.51
2023-02-06T02:31:41.318Z,904.48
2023-02-06T02:35:25.765Z,882.26
2023-02-06T02:38:55.057Z,898.66
2023-02-06T02:42:14.743Z,898.11
2023-02-06T02:45:33.329Z,873.30
2023-02-06T02:48:47.246Z,784.36
2023-02-06T02:51:58.666Z,811.21
2023-02-06T02:55:23.603Z,824.97
2023-02-06T02:58:44.796Z,877.40
2023-02-06T03:02:02.637Z,963.70
2023-02-06T03:05:14.754Z,938.29
2023-02-06T03:08:47.145Z,905.52
2023-02-06T03:12:14.670Z,902.27
2023-02-06T03:15:34.942Z,888.86
2023-02-06T03:18:50.078Z,787.89
2023-02-06T03:21:57.001Z,831.06
2023-02-06T03:25:13.316Z,823.83
2023-02-06T03:28:31.164Z,900.95
2023-02-06T03:31:45.882Z,876.81
2023-02-06T03:35:06.465Z,905.39
2023-02-06T03:38:13.860Z,863.45
2023-02-06T03:41:34.969Z,852.81
2023-02-06T03:44:57.520Z,826.70
2023-02-06T03:48:18.294Z,809.59
2023-02-06T03:51:31.919Z,793.59
2023-02-06T03:54:46.100Z,803.64
2023-02-06T03:58:09.031Z,801.17
2023-02-06T04:01:17.540Z,806.10
2023-02-06T04:04:29.372Z,796.12
2023-02-06T04:07:43.063Z,770.66
2023-02-06T04:10:49.546Z,777.76
2023-02-06T04:13:58.920Z,782.36
2023-02-06T04:17:09.799Z,756.33
2023-02-06T04:20:17.106Z,754.51
2023-02-06T04:23:24.291Z,768.56
2023-02-06T04:26:31.201Z,733.61
2023-02-06T04:29:39.724Z,728.00
2023-02-06T04:32:46.786Z,729.00
2023-02-06T04:35:52.726Z,735.05
2023-02-06T04:38:59.549Z,722.64
2023-02-06T04:42:05.836Z,719.73
2023-02-06T04:45:15.745Z,731.77
2023-02-06T04:48:24.714Z,736.12
2023-02-06T04:51:31.491Z,799.56
2023-02-06T04:54:37.459Z,810.17
2023-02-06T04:57:44.539Z,781.46
2023-02-06T05:00:58.452Z,941.15
2023-02-06T05:04:05.460Z,916.05
2023-02-06T05:07:11.379Z,959.11
2023-02-06T05:10:18.691Z,931.40
2023-02-06T05:13:30.480Z,906.37
2023-02-06T05:16:39.901Z,920.30
2023-02-06T05:19:46.119Z,961.47
2023-02-06T05:22:52.902Z,1116.47
2023-02-06T05:25:59.806Z,1121.13
2023-02-06T05:29:27.770Z,1064.20
2023-02-06T05:32:36.266Z,1092.77
2023-02-06T05:35:43.904Z,1108.61
2023-02-06T05:38:54.122Z,1144.15
2023-02-06T05:42:00.960Z,1359.29
2023-02-06T05:45:08.586Z,1433.87
2023-02-06T05:48:17.933Z,1418.21
2023-02-06T05:51:23.778Z,1440.03
2023-02-06T05:54:30.615Z,1755.31
2023-02-06T05:57:36.693Z,2280.43
2023-02-06T06:00:51.493Z,2393.82
2023-02-06T06:04:09.723Z,1933.90
2023-02-06T06:07:16.691Z,1718.37
2023-02-06T06:10:22.940Z,1571.29
2023-02-06T06:13:30.611Z,1322.82
2023-02-06T06:16:41.788Z,1222.95
2023-02-06T06:19:51.225Z,1240.46
2023-02-06T06:22:57.338Z,1336.45
2023-02-06T06:26:04.139Z,1379.85
2023-02-06T06:29:15.179Z,1275.18
2023-02-06T06:32:22.488Z,1194.11
2023-02-06T06:35:31.180Z,1121.76
2023-02-06T06:38:38.707Z,1128.32
2023-02-06T06:41:44.950Z,1112.73
2023-02-06T06:44:51.799Z,996.85
2023-02-06T06:47:57.914Z,886.71
2023-02-06T06:51:07.841Z,799.75
2023-02-06T06:54:14.702Z,761.89
2023-02-06T06:57:23.828Z,821.85
2023-02-06T07:00:41.422Z,853.17
2023-02-06T07:03:49.265Z,747.61
2023-02-06T07:06:57.877Z,688.86
2023-02-06T07:10:04.867Z,679.33
2023-02-06T07:13:11.027Z,642.14
2023-02-06T07:16:17.910Z,570.08
2023-02-06T07:19:24.308Z,523.47
2023-02-06T07:22:51.528Z,512.73
2023-02-06T07:26:08.902Z,463.25
2023-02-06T07:29:27.213Z,470.75
2023-02-06T07:32:33.999Z,464.62
2023-02-06T07:35:39.853Z,463.23
2023-02-06T07:38:51.249Z,473.96
2023-02-06T07:41:57.290Z,446.30
2023-02-06T07:45:17.152Z,433.50
2023-02-06T07:48:23.215Z,442.46
2023-02-06T07:51:33.042Z,464.51
2023-02-06T07:54:41.643Z,456.84
2023-02-06T07:57:48.490Z,436.39
2023-02-06T08:00:54.963Z,394.75
2023-02-06T08:04:08.897Z,392.02
2023-02-06T08:07:16.713Z,388.05
2023-02-06T08:10:32.929Z,400.64
2023-02-06T08:13:43.070Z,443.14
2023-02-06T08:16:49.884Z,447.66
2023-02-06T08:20:06.837Z,458.23
2023-02-06T08:23:13.607Z,444.85
2023-02-06T08:26:22.380Z,394.53
2023-02-06T08:29:30.041Z,376.59
2023-02-06T08:32:39.481Z,342.56
2023-02-06T08:35:52.378Z,345.82
2023-02-06T08:39:09.873Z,370.54
2023-02-06T08:42:19.273Z,364.42
2023-02-06T08:45:30.426Z,341.79
2023-02-06T08:48:37.248Z,323.86
2023-02-06T08:51:44.372Z,325.06
2023-02-06T08:54:54.135Z,269.85
2023-02-06T08:58:08.901Z,260.36
2023-02-06T09:01:26.731Z,235.07
2023-02-06T09:04:35.759Z,243.57
2023-02-06T09:07:42.514Z,239.21
2023-02-06T09:10:48.420Z,222.95
2023-02-06T09:14:01.303Z,202.04
2023-02-06T09:17:07.478Z,155.35
2023-02-06T09:20:14.585Z,157.35
2023-02-06T09:23:20.826Z,149.30
2023-02-06T09:26:30.918Z,143.45
2023-02-06T09:29:39.670Z,148.85
2023-02-06T09:32:46.707Z,133.44
2023-02-06T09:35:52.746Z,138.17
2023-02-06T09:39:00.796Z,144.73
2023-02-06T09:42:15.072Z,143.92
2023-02-06T09:45:30.395Z,137.10
2023-02-06T09:48:42.325Z,137.41
2023-02-06T09:52:29.240Z,117.06
2023-02-06T09:55:47.511Z,115.41
2023-02-06T09:59:07.541Z,115.64
2023-02-06T10:02:47.932Z,106.13
2023-02-06T10:06:14.381Z,108.25
2023-02-06T10:09:31.612Z,111.88
2023-02-06T10:12:47.995Z,118.88
2023-02-06T10:16:02.286Z,110.07
2023-02-06T10:19:24.472Z,117.52
2023-02-06T10:22:42.071Z,114.24
2023-02-06T10:26:17.590Z,113.44
2023-02-06T10:29:31.876Z,122.85
2023-02-06T10:32:54.198Z,128.89
2023-02-06T10:36:25.617Z,132.19
2023-02-06T10:40:04.361Z,139.59
2023-02-06T10:43:29.354Z,147.94
2023-02-06T10:46:48.433Z,174.93
2023-02-06T10:50:05.050Z,193.80
2023-02-06T10:53:25.112Z,175.40
2023-02-06T10:56:38.804Z,176.83
2023-02-06T10:59:57.740Z,175.37
2023-02-06T11:03:11.015Z,165.01
2023-02-06T11:06:26.008Z,165.30
2023-02-06T11:09:40.245Z,159.88
2023-02-06T11:13:03.944Z,161.47
2023-02-06T11:16:23.660Z,159.77
2023-02-06T11:19:40.603Z,156.54
2023-02-06T11:22:53.012Z,149.61
2023-02-06T11:26:17.493Z,144.10
2023-02-06T11:29:30.000Z,136.05
2023-02-06T11:32:52.901Z,134.89
2023-02-06T11:36:33.021Z,149.24
2023-02-06T11:39:42.608Z,164.35
2023-02-06T11:42:55.664Z,157.17
2023-02-06T11:46:21.615Z,171.35
2023-02-06T11:49:31.945Z,176.11
2023-02-06T11:52:38.983Z,175.47
2023-02-06T11:55:45.623Z,184.32
2023-02-06T11:59:14.890Z,184.10
2023-02-06T12:02:36.674Z,191.26
2023-02-06T12:05:47.357Z,202.26
2023-02-06T12:08:56.620Z,204.69
2023-02-06T12:12:13.331Z,190.80
2023-02-06T12:15:45.369Z,183.41
2023-02-06T12:19:00.683Z,210.03
2023-02-06T12:22:21.613Z,183.73
2023-02-06T12:25:36.107Z,173.65
2023-02-06T12:28:57.827Z,172.65
2023-02-06T12:32:18.379Z,165.64
2023-02-06T12:35:45.425Z,188.31
2023-02-06T12:39:01.304Z,186.83
2023-02-06T12:42:37.218Z,177.03
2023-02-06T12:45:55.211Z,149.31
2023-02-06T12:49:18.831Z,144.52
2023-02-06T12:52:34.579Z,157.14
2023-02-06T12:56:00.631Z,150.14
2023-02-06T13:00:10.960Z,157.41
2023-02-06T13:03:30.446Z,160.24
2023-02-06T13:07:02.727Z,174.85
2023-02-06T13:10:30.057Z,147.52
2023-02-06T13:13:43.749Z,145.68
2023-02-06T13:16:58.435Z,143.99
2023-02-06T13:20:17.860Z,147.08
2023-02-06T13:23:29.568Z,142.74
2023-02-06T13:27:16.728Z,147.18
2023-02-06T13:30:51.070Z,142.99
2023-02-06T13:34:04.443Z,139.21
2023-02-06T13:37:30.925Z,144.95
2023-02-06T13:40:40.825Z,143.71
2023-02-06T13:43:57.111Z,139.26
2023-02-06T13:47:34.885Z,158.83
2023-02-06T13:51:17.028Z,173.56
2023-02-06T13:55:06.218Z,159.40
2023-02-06T13:58:48.808Z,183.97
2023-02-06T14:01:57.611Z,179.35
2023-02-06T14:05:07.991Z,157.63
2023-02-06T14:08:30.588Z,180.74
2023-02-06T14:12:17.997Z,171.97
2023-02-06T14:15:45.143Z,181.91
2023-02-06T14:19:09.075Z,168.53
2023-02-06T14:22:38.189Z,151.17
2023-02-06T14:26:16.000Z,158.30
2023-02-06T14:29:49.069Z,175.09
2023-02-06T14:33:19.625Z,206.64
2023-02-06T14:37:04.001Z,202.78
2023-02-06T14:40:22.674Z,181.63
2023-02-06T14:43:38.278Z,151.67
2023-02-06T14:46:45.297Z,146.08
2023-02-06T14:49:58.331Z,150.38
2023-02-06T14:53:12.632Z,291.16
2023-02-06T14:56:27.165Z,318.04
2023-02-06T14:59:34.129Z,277.73
2023-02-06T15:02:41.328Z,253.20
2023-02-06T15:05:50.448Z,227.17
2023-02-06T15:08:57.761Z,195.48
2023-02-06T15:12:21.536Z,217.28
2023-02-06T15:15:32.357Z,243.83
2023-02-06T15:18:40.449Z,223.77
2023-02-06T15:21:50.927Z,236.98
2023-02-06T15:25:22.112Z,207.48
2023-02-06T15:28:33.914Z,180.85
2023-02-06T15:31:39.988Z,167.12
2023-02-06T15:34:49.916Z,171.50
2023-02-06T15:37:59.731Z,180.96
2023-02-06T15:41:11.632Z,174.52
2023-02-06T15:44:31.276Z,177.17
2023-02-06T15:47:39.280Z,220.35
2023-02-06T15:50:57.359Z,233.61
2023-02-06T15:54:23.851Z,205.67
2023-02-06T15:57:36.657Z,217.85
2023-02-06T16:00:45.625Z,237.10
2023-02-06T16:04:01.476Z,281.71
2023-02-06T16:07:19.367Z,313.51
2023-02-06T16:10:32.120Z,365.56
2023-02-06T16:13:40.216Z,356.26
2023-02-06T16:17:01.363Z,449.07
2023-02-06T16:20:33.407Z,476.67
2023-02-06T16:23:49.850Z,366.40
2023-02-06T16:26:59.499Z,307.02
2023-02-06T16:30:06.356Z,320.33
2023-02-06T16:33:28.961Z,276.60
2023-02-06T16:36:36.411Z,269.58
2023-02-06T16:39:45.541Z,297.92
2023-02-06T16:42:54.319Z,292.22
2023-02-06T16:46:02.872Z,269.71
2023-02-06T16:49:15.148Z,263.40
2023-02-06T16:52:28.473Z,276.09
2023-02-06T16:55:34.699Z,312.68
2023-02-06T16:58:46.729Z,335.50
2023-02-06T17:01:52.840Z,336.51
2023-02-06T17:05:00.008Z,353.11
2023-02-06T17:08:16.579Z,415.87
2023-02-06T17:11:23.437Z,428.76
2023-02-06T17:14:34.896Z,445.86
2023-02-06T17:17:43.032Z,377.92
2023-02-06T17:20:53.731Z,383.61
2023-02-06T17:24:00.657Z,370.17
2023-02-06T17:27:07.467Z,385.26
2023-02-06T17:30:22.837Z,403.09
2023-02-06T17:33:28.962Z,502.97
2023-02-06T17:36:39.804Z,482.35
2023-02-06T17:39:45.866Z,518.11
2023-02-06T17:42:53.787Z,508.27
2023-02-06T17:46:02.528Z,474.82
2023-02-06T17:49:09.558Z,533.86
2023-02-06T17:52:16.488Z,611.75
2023-02-06T17:55:24.020Z,735.02
2023-02-06T17:58:33.464Z,822.41
2023-02-06T18:01:43.373Z,741.83
2023-02-06T18:04:53.613Z,687.66
2023-02-06T18:08:01.192Z,654.90
2023-02-06T18:11:12.304Z,616.17
2023-02-06T18:14:21.103Z,600.84
2023-02-06T18:17:31.129Z,641.83
2023-02-06T18:20:39.449Z,602.50
2023-02-06T18:23:46.591Z,556.37
2023-02-06T18:26:53.487Z,1649.28
2023-02-06T18:29:59.870Z,2551.08
2023-02-06T18:33:09.649Z,2964.30
2023-02-06T18:36:15.945Z,2926.67
2023-02-06T18:39:23.400Z,2249.53
2023-02-06T18:42:42.872Z,2206.67
2023-02-06T18:46:10.203Z,2772.14
2023-02-06T18:49:33.541Z,2535.54
2023-02-06T18:52:54.408Z,2254.39
2023-02-06T18:56:18.754Z,1951.62
2023-02-06T18:59:42.668Z,1742.66
2023-02-06T19:03:03.632Z,1787.20
2023-02-06T19:06:32.148Z,1716.63
2023-02-06T19:10:00.888Z,1667.47
2023-02-06T19:13:21.513Z,3827.65
2023-02-06T19:16:47.555Z,3265.46
2023-02-06T19:20:11.081Z,3063.14
2023-02-06T19:23:35.145Z,3804.15
2023-02-06T19:26:56.734Z,3103.66
2023-02-06T19:30:17.977Z,2338.41
2023-02-06T19:33:43.837Z,1914.99
2023-02-06T19:37:04.708Z,2282.27
2023-02-06T19:40:28.119Z,3200.90
2023-02-06T19:43:49.554Z,3850.40
2023-02-06T19:47:10.366Z,3492.57
2023-02-06T19:50:31.170Z,3218.44
2023-02-06T19:53:53.844Z,2994.84
2023-02-06T19:57:19.591Z,2762.74
2023-02-06T20:00:40.610Z,2967.46
2023-02-06T20:04:04.081Z,2929.22
2023-02-06T20:07:24.878Z,2644.85
2023-02-06T20:10:45.769Z,2787.32
2023-02-06T20:14:09.617Z,2573.06
2023-02-06T20:17:33.179Z,2441.15
2023-02-06T20:20:53.956Z,2273.95
2023-02-06T20:24:25.477Z,2268.15
2023-02-06T20:27:46.298Z,2255.01
2023-02-06T20:31:14.731Z,2385.41
2023-02-06T20:34:36.154Z,2432.26
2023-02-06T20:38:08.884Z,2698.21
2023-02-06T20:41:33.164Z,2893.86
2023-02-06T20:44:54.032Z,3449.65
2023-02-06T20:48:17.726Z,3885.11
2023-02-06T20:51:38.808Z,3444.93
2023-02-06T20:55:02.360Z,3070.91
2023-02-06T20:58:23.527Z,2968.86
2023-02-06T21:01:45.451Z,3128.79
2023-02-06T21:05:09.645Z,3273.03
2023-02-06T21:08:33.560Z,3064.13
2023-02-06T21:11:57.618Z,2997.70
2023-02-06T21:15:21.417Z,2877.87
2023-02-06T21:18:42.926Z,2793.22
2023-02-06T21:22:07.108Z,2826.75
2023-02-06T21:25:28.650Z,4167.57
2023-02-06T21:28:50.248Z,3298.05
2023-02-06T21:32:14.636Z,3149.18
2023-02-06T21:35:37.112Z,3892.07
2023-02-06T21:39:00.964Z,4182.87
2023-02-06T21:42:26.433Z,3759.47
2023-02-06T21:45:50.128Z,3448.06
2023-02-06T21:49:11.871Z,3233.13
2023-02-06T21:52:32.654Z,3387.49
2023-02-06T21:55:55.943Z,3353.17
2023-02-06T21:59:16.957Z,3483.05
2023-02-06T22:02:37.607Z,3194.74
2023-02-06T22:06:12.710Z,3001.66
2023-02-06T22:09:33.662Z,2816.93
2023-02-06T22:12:57.097Z,2852.54
2023-02-06T22:16:21.804Z,3101.78
2023-02-06T22:19:42.716Z,3058.78
2023-02-06T22:23:06.664Z,2735.97
2023-02-06T22:26:30.353Z,2753.35
2023-02-06T22:29:53.618Z,2837.16
2023-02-06T22:33:14.276Z,2804.64
2023-02-06T22:36:38.034Z,2757.66
2023-02-06T22:39:59.283Z,2848.96
2023-02-06T22:43:19.975Z,2803.53
2023-02-06T22:46:43.478Z,2776.16
2023-02-06T22:50:04.108Z,2763.09
2023-02-06T22:53:35.160Z,3342.39
2023-02-06T22:56:55.857Z,3205.00
2023-02-06T23:00:18.697Z,3093.36
2023-02-06T23:03:41.997Z,3118.77
2023-02-06T23:07:06.183Z,3070.52
2023-02-06T23:10:33.014Z,3024.75
2023-02-06T23:13:56.401Z,2735.76
2023-02-06T23:17:17.085Z,2832.61
2023-02-06T23:20:42.016Z,2359.88
2023-02-06T23:24:03.232Z,2419.92
2023-02-06T23:27:25.518Z,2304.23
2023-02-06T23:30:46.324Z,2328.64
2023-02-06T23:34:07.325Z,2409.05
2023-02-06T23:37:30.622Z,2691.96
2023-02-06T23:40:51.600Z,2164.47
2023-02-06T23:44:18.358Z,2004.29
2023-02-06T23:47:39.778Z,2104.04
2023-02-06T23:51:00.781Z,2410.29
2023-02-06T23:54:24.640Z,2159.23
2023-02-06T23:57:45.387Z,2060.67
